Time;durP1;ratioP1;P1;durP2;ratioP2;P2;SDS_P1;SDS_P2;PMS_P1;PMS_P2;Temp;Humidity;BMP_temperature;BMP_pressure;BME280_temperature;BME280_humidity;BME280_pressure;Samples;Min_cycle;Max_cycle;Signal;HPM_P1;HPM_P2
2022/03/24 00:02:27;;;;;;;19.40;7.05;;;;;;;4.70;58.13;100677.13;5030398;28;20046;-58
2022/03/24 00:04:58;;;;;;;19.80;7.57;;;;;;;4.93;57.55;100674.00;5029868;28;20045;-58
2022/03/24 00:07:29;;;;;;;24.15;9.65;;;;;;;4.99;57.06;100666.28;5027862;28;20337;-58
2022/03/24 00:09:59;;;;;;;39.47;10.30;;;;;;;5.18;56.94;100681.22;5039587;28;20454;-57
2022/03/24 00:12:30;;;;;;;41.28;11.63;;;;;;;5.25;57.05;100684.75;5040257;28;20064;-58
2022/03/24 00:15:01;;;;;;;39.97;11.40;;;;;;;5.29;56.67;100683.06;5040212;28;20056;-58
2022/03/24 00:17:33;;;;;;;21.30;8.13;;;;;;;5.26;56.32;100678.72;5040494;28;20053;-58
2022/03/24 00:20:04;;;;;;;17.85;6.95;;;;;;;5.15;56.95;100651.81;5039991;28;20055;-58
2022/03/24 00:22:35;;;;;;;21.20;6.30;;;;;;;5.25;56.42;100676.13;5038752;28;20077;-58
2022/03/24 00:25:07;;;;;;;13.10;5.82;;;;;;;5.28;56.52;100681.34;5037339;28;20359;-59
2022/03/24 00:27:38;;;;;;;26.52;8.20;;;;;;;5.35;56.80;100677.97;5030108;28;20108;-58
2022/03/24 00:30:09;;;;;;;19.55;5.88;;;;;;;5.44;57.20;100682.38;5028399;28;20273;-59
2022/03/24 00:32:41;;;;;;;18.35;6.60;;;;;;;5.43;57.35;100681.50;5034384;28;20045;-58
2022/03/24 00:35:12;;;;;;;17.90;7.00;;;;;;;5.49;57.35;100668.63;5036342;28;20096;-59
2022/03/24 00:37:43;;;;;;;20.35;6.97;;;;;;;5.66;57.26;100666.19;5036424;28;20049;-58
2022/03/24 00:40:16;;;;;;;17.35;6.32;;;;;;;5.74;56.94;100661.06;5036103;28;20064;-58
2022/03/24 00:42:47;;;;;;;21.15;6.70;;;;;;;5.60;57.64;100648.84;5035918;28;20061;-58
2022/03/24 00:45:18;;;;;;;15.40;7.82;;;;;;;5.23;57.71;100571.59;5035998;28;20077;-58
2022/03/24 00:47:51;;;;;;;24.40;8.30;;;;;;;5.74;58.12;100655.91;5036097;28;20057;-58
2022/03/24 00:50:22;;;;;;;25.33;9.02;;;;;;;5.92;57.54;100650.91;5036071;28;20053;-56
2022/03/24 00:52:53;;;;;;;25.08;8.65;;;;;;;6.13;56.86;100654.56;5035699;28;20056;-58
2022/03/24 00:55:23;;;;;;;23.63;8.88;;;;;;;6.33;56.42;100641.72;5035731;28;20065;-56
2022/03/24 00:57:54;;;;;;;21.20;9.20;;;;;;;6.45;55.87;100642.69;5035637;28;20061;-56
2022/03/24 01:00:27;;;;;;;25.63;9.27;;;;;;;6.71;55.33;100634.16;5035875;28;20342;-57
2022/03/24 01:02:59;;;;;;;20.00;8.73;;;;;;;6.79;55.07;100632.50;5034365;28;20041;-58
2022/03/24 01:05:30;;;;;;;30.15;10.00;;;;;;;6.98;54.82;100638.63;5035614;28;20080;-57
2022/03/24 01:08:01;;;;;;;29.88;10.52;;;;;;;7.10;54.57;100636.09;5034184;28;20067;-57
2022/03/24 01:10:31;;;;;;;29.00;10.40;;;;;;;7.18;54.56;100636.09;5035368;28;20700;-58
2022/03/24 01:13:03;;;;;;;32.15;11.18;;;;;;;6.76;54.52;100570.13;5035748;28;20049;-57
2022/03/24 01:15:34;;;;;;;31.70;11.65;;;;;;;7.05;54.57;100635.19;5032835;28;20256;-57
2022/03/24 01:18:07;;;;;;;36.00;10.60;;;;;;;7.07;54.51;100632.63;5035392;28;20060;-58
2022/03/24 01:20:38;;;;;;;34.95;11.98;;;;;;;7.18;54.39;100630.91;5034823;28;20386;-58
2022/03/24 01:23:09;;;;;;;32.25;11.27;;;;;;;7.17;54.33;100612.72;5034760;28;20123;-58
2022/03/24 01:25:41;;;;;;;26.92;10.65;;;;;;;7.21;54.04;100620.50;5035457;28;20432;-57
2022/03/24 01:28:12;;;;;;;26.45;10.60;;;;;;;7.29;54.10;100618.81;5034964;28;20049;-56
2022/03/24 01:30:43;;;;;;;30.73;9.52;;;;;;;7.22;53.80;100595.41;5034798;28;20073;-57
2022/03/24 01:33:15;;;;;;;23.60;9.43;;;;;;;7.28;53.54;100614.47;5034800;28;20064;-56
2022/03/24 01:35:46;;;;;;;20.08;9.50;;;;;;;7.29;53.57;100611.03;5035033;28;20227;-57
2022/03/24 01:38:17;;;;;;;25.38;7.82;;;;;;;7.43;53.18;100617.97;5034969;28;20042;-54
2022/03/24 01:40:48;;;;;;;18.35;6.40;;;;;;;7.54;52.56;100604.16;5035140;28;20061;-57
2022/03/24 01:43:19;;;;;;;12.20;6.30;;;;;;;7.53;51.63;100617.13;5035386;28;20099;-56
2022/03/24 01:45:50;;;;;;;20.23;6.35;;;;;;;7.43;51.73;100610.19;5034751;28;20323;-55
2022/03/24 01:48:22;;;;;;;26.50;6.40;;;;;;;7.27;51.19;100565.97;5034765;28;20060;-57
2022/03/24 01:50:53;;;;;;;12.25;5.07;;;;;;;7.40;51.23;100605.84;5034824;28;20051;-57
2022/03/24 01:53:23;;;;;;;14.77;5.85;;;;;;;7.22;51.49;100611.88;5035132;28;20081;-54
2022/03/24 01:55:56;;;;;;;15.85;5.00;;;;;;;7.23;52.16;100613.59;5034804;28;20065;-57
2022/03/24 01:58:27;;;;;;;15.35;5.95;;;;;;;7.38;51.60;100601.50;5034506;28;20311;-52
2022/03/24 02:01:23;;;;;;;13.25;5.70;;;;;;;7.41;51.61;100598.91;5034822;28;20239;-54
2022/03/24 02:03:58;;;;;;;20.27;7.50;;;;;;;7.68;51.15;100601.53;5034675;28;20054;-54
2022/03/24 02:06:28;;;;;;;23.13;8.27;;;;;;;7.93;50.43;100606.75;5034649;28;20139;-56
2022/03/24 02:08:59;;;;;;;27.77;9.02;;;;;;;7.91;50.09;100606.78;5034668;28;20095;-56
2022/03/24 02:11:31;;;;;;;27.45;11.13;;;;;;;7.96;50.53;100609.34;5034402;28;20048;-56
2022/03/24 02:14:02;;;;;;;27.27;9.07;;;;;;;8.07;50.07;100605.03;5034463;28;20364;-54
2022/03/24 02:16:34;;;;;;;31.73;11.48;;;;;;;8.32;49.15;100605.00;5034648;28;20051;-57
2022/03/24 02:19:17;;;;;;;33.90;12.10;;;;;;;8.01;49.51;100537.34;5034558;28;20053;-58
2022/03/24 02:21:49;;;;;;;25.55;10.18;;;;;;;8.46;49.56;100590.22;5034555;28;20117;-56
2022/03/24 02:24:22;;;;;;;18.80;7.90;;;;;;;8.43;49.44;100592.84;5034543;28;20095;-58
2022/03/24 02:26:54;;;;;;;16.00;7.22;;;;;;;8.43;48.94;100572.00;5034332;28;20095;-57
2022/03/24 02:29:25;;;;;;;23.58;6.90;;;;;;;8.71;48.94;100603.19;5034117;28;20069;-58
2022/03/24 02:31:56;;;;;;;20.90;6.47;;;;;;;8.87;48.91;100599.66;5034145;28;20080;-58
2022/03/24 02:34:40;;;;;;;21.95;7.00;;;;;;;8.93;48.70;100593.56;5034367;28;20053;-58
2022/03/24 02:37:13;;;;;;;17.70;6.47;;;;;;;8.50;48.74;100518.19;5033900;28;20064;-58
2022/03/24 02:39:46;;;;;;;17.60;6.63;;;;;;;9.00;48.10;100588.31;5034193;28;21247;-58
2022/03/24 02:42:19;;;;;;;16.20;6.93;;;;;;;8.88;47.67;100564.91;5031828;28;20055;-59
2022/03/24 02:44:52;;;;;;;20.55;7.45;;;;;;;9.15;48.01;100583.91;5033465;28;20120;-59
2022/03/24 02:47:23;;;;;;;16.58;6.40;;;;;;;9.06;47.21;100579.56;5033942;28;20289;-58
2022/03/24 02:49:56;;;;;;;25.20;7.70;;;;;;;8.98;47.58;100586.59;5033444;28;20117;-58
2022/03/24 02:52:27;;;;;;;21.45;6.72;;;;;;;8.90;47.49;100578.78;5034135;28;20045;-58
2022/03/24 02:55:00;;;;;;;16.55;6.65;;;;;;;8.97;47.91;100574.44;5033811;28;20116;-58
2022/03/24 02:57:30;;;;;;;17.63;7.13;;;;;;;8.44;48.06;100490.44;5033602;28;20054;-59
2022/03/24 03:00:01;;;;;;;13.10;6.32;;;;;;;8.46;48.29;100519.06;5032569;28;20057;-58
2022/03/24 03:02:32;;;;;;;18.02;6.30;;;;;;;8.72;49.10;100573.69;5033012;28;20053;-59
2022/03/24 03:05:03;;;;;;;17.00;6.22;;;;;;;8.66;48.79;100573.69;5032633;28;20060;-59
2022/03/24 03:07:34;;;;;;;27.30;7.00;;;;;;;8.67;48.96;100571.09;5032472;28;20105;-58
2022/03/24 03:10:07;;;;;;;17.88;7.65;;;;;;;8.66;49.29;100571.06;5032263;28;20049;-59
2022/03/24 03:12:37;;;;;;;22.48;7.20;;;;;;;8.44;47.96;100552.94;5032518;28;20816;-59
2022/03/24 03:15:08;;;;;;;16.95;5.63;;;;;;;8.28;47.86;100556.41;5032290;28;20056;-58
2022/03/24 03:17:39;;;;;;;14.48;6.82;;;;;;;8.08;47.60;100544.28;5032998;28;20120;-59
2022/03/24 03:20:13;;;;;;;14.02;5.80;;;;;;;7.93;47.24;100526.09;5033647;28;20080;-59
2022/03/24 03:22:44;;;;;;;18.17;6.15;;;;;;;8.23;47.29;100547.75;5033701;28;20060;-59
2022/03/24 03:25:16;;;;;;;18.55;6.35;;;;;;;8.35;47.22;100547.72;5032161;28;20049;-60
2022/03/24 03:27:46;;;;;;;21.08;7.57;;;;;;;8.33;47.73;100539.03;5033314;28;20120;-59
2022/03/24 03:30:17;;;;;;;19.90;7.22;;;;;;;8.33;48.58;100544.25;5032676;28;20362;-58
2022/03/24 03:32:48;;;;;;;24.38;8.50;;;;;;;8.41;48.84;100542.50;5033189;28;20049;-59
2022/03/24 03:35:18;;;;;;;22.90;8.80;;;;;;;8.42;48.62;100544.25;5033444;28;20139;-59
2022/03/24 03:37:49;;;;;;;17.95;7.78;;;;;;;8.47;49.05;100536.44;5033333;28;20076;-59
2022/03/24 03:40:21;;;;;;;26.48;10.00;;;;;;;8.57;48.92;100527.72;5033439;28;20049;-60
2022/03/24 03:42:53;;;;;;;22.25;8.75;;;;;;;8.59;48.93;100529.44;5033114;28;20098;-58
2022/03/24 03:45:23;;;;;;;18.98;8.40;;;;;;;8.66;48.69;100526.78;5033600;28;20049;-58
2022/03/24 03:47:54;;;;;;;23.92;9.27;;;;;;;8.80;48.81;100518.03;5033683;28;20443;-58
2022/03/24 03:50:25;;;;;;;23.05;7.97;;;;;;;8.70;48.52;100512.88;5033233;28;20045;-59
2022/03/24 03:52:56;;;;;;;22.33;8.95;;;;;;;8.71;48.51;100514.59;5033414;28;20309;-58
2022/03/24 03:55:29;;;;;;;22.08;8.93;;;;;;;8.70;48.32;100512.88;5033282;28;20077;-59
2022/03/24 03:58:00;;;;;;;20.98;8.60;;;;;;;8.70;48.44;100518.09;5036077;28;20070;-59
2022/03/24 04:03:21;;;;;;;22.77;8.57;;;;;;;8.67;48.51;100508.56;5035253;28;20045;-58
2022/03/24 04:05:52;;;;;;;20.63;8.10;;;;;;;8.38;49.01;100453.97;5035833;28;20061;-59
2022/03/24 04:08:23;;;;;;;25.45;9.13;;;;;;;8.63;48.68;100502.47;5036223;28;20058;-59
2022/03/24 04:10:55;;;;;;;28.85;8.85;;;;;;;8.58;48.83;100509.44;5034921;28;20060;-59
2022/03/24 04:13:26;;;;;;;25.75;9.30;;;;;;;8.62;48.96;100498.16;5034787;28;20049;-59
2022/03/24 04:15:57;;;;;;;26.15;9.57;;;;;;;8.67;48.97;100507.69;5034840;28;20059;-60
2022/03/24 04:18:28;;;;;;;32.25;8.65;;;;;;;8.69;49.00;100508.56;5034976;28;20101;-59
2022/03/24 04:20:58;;;;;;;23.25;8.68;;;;;;;8.78;49.42;100505.91;5034571;28;20046;-59
2022/03/24 04:23:29;;;;;;;27.65;9.45;;;;;;;8.77;49.15;100509.38;5034496;28;20053;-59
2022/03/24 04:26:02;;;;;;;31.73;9.55;;;;;;;8.75;49.12;100505.91;5035065;28;20059;-59
2022/03/24 04:28:32;;;;;;;25.00;8.48;;;;;;;8.72;49.47;100501.59;5034544;28;20096;-58
2022/03/24 04:31:03;;;;;;;21.20;8.43;;;;;;;8.66;49.61;100505.94;5034633;28;20057;-59
2022/03/24 04:33:34;;;;;;;20.33;9.20;;;;;;;8.66;50.06;100511.16;5034960;28;20068;-59
2022/03/24 04:36:08;;;;;;;32.22;10.02;;;;;;;8.45;50.72;100513.00;5034606;28;20053;-59
2022/03/24 04:38:39;;;;;;;30.85;12.95;;;;;;;8.32;51.28;100513.88;5034250;28;20045;-59
2022/03/24 04:41:11;;;;;;;27.42;11.48;;;;;;;8.11;52.11;100518.28;5035054;28;20077;-60
2022/03/24 04:43:42;;;;;;;22.98;10.02;;;;;;;7.99;52.31;100526.09;5034491;28;20081;-59
2022/03/24 04:46:12;;;;;;;21.83;8.30;;;;;;;7.88;52.69;100525.25;5034161;28;20339;-59
2022/03/24 04:48:44;;;;;;;16.27;7.45;;;;;;;7.65;53.09;100533.06;5034440;28;20340;-59
2022/03/24 04:51:16;;;;;;;18.27;6.00;;;;;;;7.35;53.48;100540.84;5034935;28;20061;-59
2022/03/24 04:53:47;;;;;;;19.83;7.35;;;;;;;7.02;54.91;100558.97;5033262;28;20079;-58
2022/03/24 04:56:20;;;;;;;9.48;4.50;;;;;;;6.53;56.54;100556.19;5034105;28;20235;-58
2022/03/24 04:58:50;;;;;;;11.63;4.32;;;;;;;6.20;57.85;100562.94;5034485;28;20060;-59
2022/03/24 05:01:21;;;;;;;9.40;3.92;;;;;;;5.94;58.97;100576.59;5034405;28;20060;-58
2022/03/24 05:03:52;;;;;;;10.65;4.10;;;;;;;5.72;59.62;100579.84;5034264;28;20107;-58
2022/03/24 05:06:23;;;;;;;9.32;4.22;;;;;;;5.53;60.52;100582.25;5034473;28;20260;-60
2022/03/24 05:08:53;;;;;;;9.35;4.30;;;;;;;5.40;61.30;100583.88;5033535;28;20344;-60
2022/03/24 05:11:25;;;;;;;8.88;3.60;;;;;;;5.17;62.08;100581.03;5034377;28;20071;-60
2022/03/24 05:13:56;;;;;;;8.02;4.32;;;;;;;5.06;62.88;100587.81;5034076;28;20333;-61
2022/03/24 05:16:27;;;;;;;9.52;3.78;;;;;;;5.05;63.39;100588.69;5033562;28;20117;-60
2022/03/24 05:18:57;;;;;;;11.02;4.55;;;;;;;4.92;63.50;100558.31;5035426;28;20084;-59
2022/03/24 05:21:28;;;;;;;13.13;5.07;;;;;;;5.13;64.01;100594.81;5035465;28;20125;-61
2022/03/24 05:23:59;;;;;;;11.27;4.35;;;;;;;4.98;64.22;100599.81;5035089;28;20061;-61
2022/03/24 05:26:31;;;;;;;6.50;3.80;;;;;;;4.72;64.00;100546.00;5035299;28;20071;-60
2022/03/24 05:29:04;;;;;;;8.65;3.90;;;;;;;5.06;64.37;100605.94;5035113;28;20061;-59
2022/03/24 05:31:35;;;;;;;6.63;4.15;;;;;;;5.03;64.33;100618.88;5035178;28;20062;-59
2022/03/24 05:34:06;;;;;;;6.38;3.97;;;;;;;4.57;64.47;100535.47;5035163;28;20055;-59
2022/03/24 05:36:36;;;;;;;9.93;4.13;;;;;;;4.78;65.34;100609.06;5034834;28;20061;-60
2022/03/24 05:39:08;;;;;;;7.10;3.97;;;;;;;4.44;66.61;100617.25;5035095;28;20581;-59
2022/03/24 05:41:41;;;;;;;9.15;4.40;;;;;;;4.12;67.58;100621.94;5034896;28;20459;-59
2022/03/24 05:44:11;;;;;;;7.43;4.10;;;;;;;3.64;69.12;100625.44;5035026;28;20061;-59
2022/03/24 05:46:49;;;;;;;6.95;4.22;;;;;;;3.23;70.55;100581.66;5034667;28;20061;-59
2022/03/24 05:49:21;;;;;;;8.48;4.45;;;;;;;2.49;71.81;100528.59;5034563;28;20121;-59
2022/03/24 05:51:52;;;;;;;10.43;4.25;;;;;;;2.80;73.39;100622.13;5034924;28;20068;-60
2022/03/24 05:54:22;;;;;;;7.43;4.40;;;;;;;2.57;74.59;100625.09;5034772;28;20065;-59
2022/03/24 05:56:56;;;;;;;9.93;4.80;;;;;;;2.32;75.39;100626.25;5035021;28;20056;-59
2022/03/24 05:59:27;;;;;;;7.97;5.00;;;;;;;2.06;76.67;100630.78;5034652;28;20347;-60
2022/03/24 06:01:59;;;;;;;9.23;4.90;;;;;;;1.71;77.07;100594.72;5034714;28;20040;-60
2022/03/24 06:04:30;;;;;;;9.80;4.97;;;;;;;1.85;77.42;100625.13;5034671;28;20061;-60
2022/03/24 06:07:02;;;;;;;12.65;5.50;;;;;;;2.00;77.71;100629.75;5034707;28;20287;-60
2022/03/24 06:09:32;;;;;;;9.43;5.43;;;;;;;2.07;77.14;100627.38;5034406;28;20077;-60
2022/03/24 06:12:06;;;;;;;7.85;4.68;;;;;;;2.20;77.37;100637.97;5034426;28;20049;-60
2022/03/24 06:14:36;;;;;;;8.60;4.88;;;;;;;2.53;77.11;100643.91;5034320;28;20736;-60
2022/03/24 06:17:07;;;;;;;10.07;5.38;;;;;;;2.67;76.48;100640.75;5034296;28;20065;-60
2022/03/24 06:19:39;;;;;;;8.98;5.47;;;;;;;2.65;76.31;100624.38;5033944;28;20059;-60
2022/03/24 06:22:12;;;;;;;9.43;5.45;;;;;;;2.80;75.97;100632.44;5034187;28;20762;-60
2022/03/24 06:24:43;;;;;;;9.23;4.80;;;;;;;2.84;75.55;100644.56;5033207;28;20299;-59
2022/03/24 06:27:17;;;;;;;9.52;5.47;;;;;;;2.76;75.38;100651.28;5031262;28;20171;-60
2022/03/24 06:29:48;;;;;;;10.35;5.45;;;;;;;2.79;75.60;100651.34;5034242;28;20127;-60
2022/03/24 06:32:20;;;;;;;8.57;5.05;;;;;;;2.54;75.48;100588.88;5033885;28;20061;-60
2022/03/24 06:34:52;;;;;;;8.25;4.68;;;;;;;2.66;75.33;100597.72;5034212;28;20053;-60
2022/03/24 06:37:22;;;;;;;10.70;5.10;;;;;;;2.95;75.04;100648.25;5034194;28;20092;-60
2022/03/24 06:39:53;;;;;;;10.23;4.93;;;;;;;2.82;74.80;100653.97;5034241;28;20053;-60
2022/03/24 06:42:25;;;;;;;7.95;4.68;;;;;;;2.65;75.44;100643.31;5034386;28;20240;-60
2022/03/24 06:44:56;;;;;;;10.38;5.57;;;;;;;2.62;76.14;100642.34;5034280;28;20103;-59
2022/03/24 06:47:26;;;;;;;8.73;5.63;;;;;;;2.64;76.53;100645.84;5034263;28;20041;-59
2022/03/24 06:49:57;;;;;;;8.60;6.07;;;;;;;2.54;76.61;100622.41;5034144;28;20825;-59
2022/03/24 06:52:28;;;;;;;11.88;5.95;;;;;;;2.74;76.44;100642.63;5034020;28;20129;-59
2022/03/24 06:54:58;;;;;;;10.90;6.43;;;;;;;2.45;76.94;100599.03;5033570;28;20060;-60
2022/03/24 06:57:31;;;;;;;12.13;5.97;;;;;;;2.64;77.12;100651.00;5033913;28;20298;-60
2022/03/24 07:00:01;;;;;;;11.18;4.75;;;;;;;2.51;76.78;100630.09;5034134;28;20049;-60
2022/03/24 07:02:32;;;;;;;7.95;4.38;;;;;;;2.51;76.67;100637.84;5033756;28;20084;-60
2022/03/24 07:05:02;;;;;;;7.28;4.75;;;;;;;2.66;76.71;100649.34;5033904;28;20049;-61
2022/03/24 07:07:33;;;;;;;8.10;4.93;;;;;;;2.72;76.42;100659.78;5033794;28;20054;-60
2022/03/24 07:10:04;;;;;;;11.77;4.97;;;;;;;2.80;76.11;100643.63;5033961;28;20053;-60
2022/03/24 07:12:36;;;;;;;6.93;4.43;;;;;;;2.87;75.74;100649.81;5033817;28;20055;-60
2022/03/24 07:15:11;;;;;;;8.45;4.80;;;;;;;2.90;75.49;100639.53;5033615;28;20048;-59
2022/03/24 07:17:42;;;;;;;11.35;5.25;;;;;;;2.91;75.11;100646.44;5033873;28;20055;-59
2022/03/24 07:20:13;;;;;;;8.48;4.80;;;;;;;2.78;75.11;100645.31;5032526;28;20049;-59
2022/03/24 07:22:44;;;;;;;7.53;5.03;;;;;;;2.59;75.68;100654.34;5033409;28;20128;-59
2022/03/24 07:25:15;;;;;;;12.20;5.80;;;;;;;2.61;76.17;100656.09;5033614;28;20083;-59
2022/03/24 07:27:49;;;;;;;29.60;14.25;;;;;;;2.65;76.58;100652.78;5033198;28;20057;-58
2022/03/24 07:30:20;;;;;;;20.00;11.80;;;;;;;2.67;76.19;100658.81;5032699;28;20060;-60
2022/03/24 07:32:50;;;;;;;13.30;8.20;;;;;;;2.64;76.31;100669.06;5036321;28;20057;-59
2022/03/24 07:35:24;;;;;;;10.48;7.15;;;;;;;2.23;76.28;100601.97;5036777;28;20059;-59
2022/03/24 07:37:54;;;;;;;11.07;6.50;;;;;;;2.53;76.25;100649.06;5037232;28;20057;-58
2022/03/24 07:40:26;;;;;;;13.30;7.00;;;;;;;2.65;76.01;100665.66;5037812;28;20084;-59
2022/03/24 07:42:58;;;;;;;12.27;5.75;;;;;;;2.63;76.01;100657.03;5037162;28;20095;-59
2022/03/24 07:45:30;;;;;;;10.18;6.30;;;;;;;2.73;75.78;100666.69;5036018;28;20164;-60
2022/03/24 07:48:14;;;;;;;14.60;6.95;;;;;;;2.79;75.77;100671.97;5036152;28;20449;-59
2022/03/24 07:50:47;;;;;;;12.50;7.82;;;;;;;2.68;75.83;100650.25;5037171;28;20100;-59
2022/03/24 07:53:39;;;;;;;10.63;6.05;;;;;;;2.85;75.70;100677.28;5036925;28;20060;-60
2022/03/24 07:56:10;;;;;;;10.90;6.05;;;;;;;2.81;75.30;100670.31;5036807;28;20050;-59
2022/03/24 07:58:42;;;;;;;11.40;6.25;;;;;;;2.77;75.61;100673.66;5036928;28;20359;-59
2022/03/24 08:01:13;;;;;;;11.02;7.00;;;;;;;2.74;75.56;100678.75;5036721;28;20124;-60
2022/03/24 08:03:44;;;;;;;11.85;6.93;;;;;;;2.69;75.68;100675.19;5036781;28;20080;-59
2022/03/24 08:06:20;;;;;;;14.30;7.15;;;;;;;2.61;75.85;100681.91;5036445;28;20053;-59
2022/03/24 08:08:51;;;;;;;13.45;7.38;;;;;;;2.54;75.80;100681.75;5036755;28;20116;-59
2022/03/24 08:11:25;;;;;;;12.52;7.18;;;;;;;2.45;76.14;100697.03;5036955;28;20065;-60
2022/03/24 08:13:57;;;;;;;10.55;6.55;;;;;;;2.26;76.83;100695.72;5037069;28;20095;-59
2022/03/24 08:16:28;;;;;;;16.20;7.68;;;;;;;2.13;76.94;100694.53;5036974;28;20049;-59
2022/03/24 08:18:59;;;;;;;15.95;8.70;;;;;;;2.15;77.58;100703.19;5036389;28;20344;-59
2022/03/24 08:21:29;;;;;;;19.13;9.18;;;;;;;2.18;77.80;100711.84;5036445;28;20057;-59
2022/03/24 08:24:00;;;;;;;15.50;7.80;;;;;;;2.11;77.87;100701.38;5036755;28;20125;-58
2022/03/24 08:26:31;;;;;;;17.08;9.15;;;;;;;2.09;77.72;100708.19;5036179;28;20088;-59
2022/03/24 08:29:03;;;;;;;13.63;7.72;;;;;;;2.09;78.22;100710.75;5034650;28;20233;-58
2022/03/24 08:31:34;;;;;;;16.27;7.85;;;;;;;2.08;78.64;100727.06;5035319;28;20041;-59
2022/03/24 08:34:05;;;;;;;12.40;7.88;;;;;;;2.03;78.34;100718.34;5035925;28;20308;-60
2022/03/24 08:36:36;;;;;;;11.68;7.93;;;;;;;1.99;78.90;100721.66;5035850;28;20045;-59
2022/03/24 08:39:06;;;;;;;13.82;7.72;;;;;;;1.40;78.91;100630.81;5034702;28;20263;-59
2022/03/24 08:41:37;;;;;;;13.88;7.00;;;;;;;1.96;78.75;100737.06;5035448;28;20057;-59
2022/03/24 08:44:10;;;;;;;16.75;8.57;;;;;;;1.86;78.78;100735.09;5034489;28;20060;-61
2022/03/24 08:46:40;;;;;;;13.27;7.25;;;;;;;1.80;79.39;100740.94;5035896;28;20158;-59
2022/03/24 08:49:11;;;;;;;14.80;7.55;;;;;;;1.59;79.29;100700.00;5035285;28;20048;-58
2022/03/24 08:51:42;;;;;;;13.65;6.78;;;;;;;1.78;79.29;100732.31;5035511;28;20045;-59
2022/03/24 08:54:13;;;;;;;14.88;7.63;;;;;;;1.86;79.74;100747.97;5035882;28;20065;-59
2022/03/24 08:56:44;;;;;;;15.00;7.80;;;;;;;1.79;79.66;100748.63;5035599;28;20076;-58
2022/03/24 08:59:16;;;;;;;15.45;7.15;;;;;;;1.75;79.62;100749.38;5035804;28;20129;-60
2022/03/24 09:01:47;;;;;;;15.43;7.70;;;;;;;1.66;79.88;100740.56;5035378;28;20053;-58
2022/03/24 09:04:20;;;;;;;11.02;6.55;;;;;;;1.70;79.81;100755.28;5035490;28;20076;-58
2022/03/24 09:06:51;;;;;;;12.20;6.65;;;;;;;1.77;79.92;100768.31;5036130;28;20091;-59
2022/03/24 09:09:22;;;;;;;14.85;6.63;;;;;;;1.77;80.09;100765.75;5035405;28;20048;-59
2022/03/24 09:11:53;;;;;;;10.88;5.25;;;;;;;1.82;80.10;100769.31;5035540;28;20064;-59
2022/03/24 09:14:25;;;;;;;13.07;7.60;;;;;;;1.83;79.86;100777.09;5035351;28;20113;-59
2022/03/24 09:16:56;;;;;;;16.08;7.32;;;;;;;1.82;79.90;100784.78;5034893;28;20115;-59
2022/03/24 09:19:27;;;;;;;10.73;6.75;;;;;;;1.79;79.58;100784.69;5033833;28;20354;-59
2022/03/24 09:21:57;;;;;;;10.27;5.63;;;;;;;1.79;79.68;100785.56;5034273;28;20049;-59
2022/03/24 09:24:34;;;;;;;9.68;5.40;;;;;;;1.66;79.16;100779.22;5033987;28;20095;-59
2022/03/24 09:27:05;;;;;;;11.75;5.40;;;;;;;1.70;78.80;100806.81;5033417;28;20045;-60
2022/03/24 09:29:37;;;;;;;7.15;4.50;;;;;;;1.57;79.15;100804.69;5033301;28;20072;-59
2022/03/24 09:32:12;;;;;;;7.68;5.10;;;;;;;1.32;79.72;100795.38;5034004;28;20083;-58
2022/03/24 09:34:43;;;;;;;8.77;4.95;;;;;;;0.97;80.20;100781.44;5033603;28;20248;-58
2022/03/24 09:37:18;;;;;;;8.38;4.93;;;;;;;1.01;80.49;100809.03;5032907;28;20332;-58
2022/03/24 09:39:48;;;;;;;20.33;10.68;;;;;;;0.94;81.17;100814.81;5033471;28;20061;-59
2022/03/24 09:42:21;;;;;;;13.65;6.97;;;;;;;0.88;81.49;100823.22;5033681;28;20083;-59
2022/03/24 09:44:53;;;;;;;6.90;4.47;;;;;;;0.92;81.83;100826.75;5033005;28;20061;-59
2022/03/24 09:47:26;;;;;;;8.05;4.25;;;;;;;0.93;81.65;100828.53;5032874;28;20053;-58
2022/03/24 09:49:57;;;;;;;8.90;4.47;;;;;;;0.79;81.50;100800.63;5034250;28;20053;-58
2022/03/24 09:52:28;;;;;;;6.93;3.50;;;;;;;1.06;81.80;100815.19;5033656;28;20282;-59
2022/03/24 09:54:58;;;;;;;5.93;3.15;;;;;;;0.96;81.21;100800.31;5033108;28;20061;-59
2022/03/24 09:57:29;;;;;;;9.68;4.30;;;;;;;1.00;81.24;100804.69;5033521;28;20128;-58
2022/03/24 10:00:03;;;;;;;8.88;4.63;;;;;;;0.96;81.67;100800.31;5033417;28;20049;-59
2022/03/24 10:02:33;;;;;;;8.25;4.88;;;;;;;1.03;81.68;100794.53;5033054;28;20058;-60
2022/03/24 10:05:06;;;;;;;7.55;3.80;;;;;;;0.48;80.99;100700.22;5033026;28;20064;-59
2022/03/24 10:07:37;;;;;;;9.10;3.42;;;;;;;1.09;81.07;100802.41;5033380;28;20339;-58
2022/03/24 10:10:08;;;;;;;5.38;3.63;;;;;;;1.09;80.76;100799.84;5033359;28;20068;-59
2022/03/24 10:12:39;;;;;;;7.18;4.35;;;;;;;1.19;80.00;100801.00;5032687;28;20251;-58
2022/03/24 10:15:13;;;;;;;7.50;4.10;;;;;;;1.19;79.67;100786.44;5032799;28;20073;-61
2022/03/24 10:17:52;;;;;;;7.20;4.32;;;;;;;1.20;79.13;100787.28;5033109;28;20252;-58
2022/03/24 10:20:28;;;;;;;5.85;3.72;;;;;;;1.27;79.35;100792.69;5033149;28;20116;-58
2022/03/24 10:23:01;;;;;;;10.23;4.43;;;;;;;1.33;79.18;100793.72;5033164;28;20057;-59
2022/03/24 10:25:33;;;;;;;5.22;3.75;;;;;;;1.17;78.59;100782.94;5032008;28;20056;-60
2022/03/24 10:28:06;;;;;;;10.10;5.80;;;;;;;1.41;78.75;100812.81;5032991;28;20058;-59
2022/03/24 10:30:52;;;;;;;13.18;6.95;;;;;;;1.40;78.34;100816.19;5033584;28;20048;-59
2022/03/24 10:33:30;;;;;;;17.73;8.88;;;;;;;1.27;78.42;100815.88;5034045;28;20045;-59
2022/03/24 10:36:13;;;;;;;14.40;8.80;;;;;;;1.29;78.72;100808.16;5034109;28;20053;-59
2022/03/24 10:38:45;;;;;;;9.00;5.97;;;;;;;1.04;78.61;100781.69;5033949;28;20076;-59
2022/03/24 10:41:21;;;;;;;12.95;6.72;;;;;;;1.19;78.46;100812.16;5033945;28;20346;-59
2022/03/24 10:43:53;;;;;;;10.88;5.70;;;;;;;1.21;78.42;100833.69;5034045;28;20072;-59
2022/03/24 10:46:28;;;;;;;15.98;7.38;;;;;;;0.62;79.05;100766.69;5033577;28;20057;-58
2022/03/24 10:48:59;;;;;;;10.07;5.97;;;;;;;0.99;79.25;100839.00;5033985;28;20053;-59
2022/03/24 10:51:31;;;;;;;12.00;6.43;;;;;;;0.89;79.61;100847.25;5033149;28;20061;-59
2022/03/24 10:54:15;;;;;;;7.57;4.78;;;;;;;0.88;79.77;100845.50;5033476;28;20116;-59
2022/03/24 10:56:52;;;;;;;8.93;4.53;;;;;;;0.93;80.28;100854.25;5033755;28;20057;-59
2022/03/24 10:59:24;;;;;;;8.00;4.65;;;;;;;0.88;79.96;100850.66;5033404;28;20087;-59
2022/03/24 11:01:57;;;;;;;10.27;5.50;;;;;;;0.48;79.99;100772.22;5033384;28;20049;-59
2022/03/24 11:04:28;;;;;;;9.02;5.30;;;;;;;0.83;80.08;100848.81;5033865;28;20242;-59
2022/03/24 11:06:59;;;;;;;24.35;11.43;;;;;;;0.81;79.73;100847.88;5035534;28;20059;-59
2022/03/24 11:09:31;;;;;;;139.60;53.20;;;;;;;0.80;79.78;100853.84;5038115;28;20336;-58
2022/03/24 11:12:36;;;;;;;123.50;45.15;;;;;;;0.72;79.57;100865.56;5037939;28;20060;-59
2022/03/24 11:15:09;;;;;;;21.95;10.10;;;;;;;0.59;79.61;100863.41;4995878;28;20063;-59
2022/03/24 11:17:42;;;;;;;74.40;27.00;;;;;;;0.49;79.59;100866.50;5031699;28;20084;-58
2022/03/24 11:20:24;;;;;;;74.85;28.77;;;;;;;0.45;79.54;100872.34;5037612;28;20061;-58
2022/03/24 11:22:58;;;;;;;47.47;19.92;;;;;;;0.43;80.23;100878.34;5037794;28;20046;-59
2022/03/24 11:25:31;;;;;;;23.73;12.48;;;;;;;0.35;80.53;100871.16;5037965;28;20037;-59
2022/03/24 11:28:06;;;;;;;21.65;10.18;;;;;;;0.33;81.14;100871.13;5037599;28;20049;-59
2022/03/24 11:30:39;;;;;;;17.45;10.55;;;;;;;0.35;80.99;100871.16;5036278;28;20057;-59
2022/03/24 11:33:13;;;;;;;16.63;9.05;;;;;;;0.37;81.14;100872.97;5037289;28;20037;-59
2022/03/24 11:35:45;;;;;;;15.73;9.70;;;;;;;0.40;81.36;100872.19;5037382;28;20053;-59
2022/03/24 11:38:16;;;;;;;18.48;11.30;;;;;;;0.40;81.63;100877.34;5037325;28;20086;-59
2022/03/24 11:40:46;;;;;;;18.30;9.90;;;;;;;0.38;81.66;100874.72;5037333;28;20267;-58
2022/03/24 11:43:20;;;;;;;18.80;10.98;;;;;;;0.31;81.65;100872.75;5037281;28;20064;-59
2022/03/24 11:45:58;;;;;;;16.70;11.27;;;;;;;0.21;81.94;100881.84;5036934;28;20347;-58
2022/03/24 11:48:38;;;;;;;19.50;10.25;;;;;;;0.12;81.70;100880.63;5036668;28;20386;-59
2022/03/24 11:51:20;;;;;;;26.88;12.63;;;;;;;-0.04;82.31;100874.94;5036221;28;20389;-58
2022/03/24 11:54:03;;;;;;;17.73;11.02;;;;;;;-0.25;82.75;100830.50;5036911;28;20053;-58